Time;durP1;ratioP1;P1;durP2;ratioP2;P2;SDS_P1;SDS_P2;PMS_P1;PMS_P2;Temp;Humidity;BMP_temperature;BMP_pressure;BME280_temperature;BME280_humidity;BME280_pressure;Samples;Min_cycle;Max_cycle;Signal;HPM_P1;HPM_P2
2022/11/09 00:02:31;;;;;;;56.58;16.67;;;7.60;99.90;;;;;;5247668;28;20033;-77
2022/11/09 00:05:22;;;;;;;45.40;14.47;;;7.60;99.90;;;;;;5233607;28;20044;-77
2022/11/09 00:08:16;;;;;;;58.40;15.38;;;7.70;99.90;;;;;;5231520;28;20032;-77
2022/11/09 00:11:11;;;;;;;70.72;17.17;;;7.70;99.90;;;;;;5234911;28;20059;-77
2022/11/09 00:14:05;;;;;;;38.28;14.93;;;7.70;99.90;;;;;;5248353;28;20028;-77
2022/11/09 00:16:56;;;;;;;37.05;14.13;;;7.70;99.90;;;;;;5248879;28;20044;-77
2022/11/09 00:19:50;;;;;;;45.97;14.43;;;7.80;99.90;;;;;;5235167;28;20020;-77
2022/11/09 00:22:45;;;;;;;38.22;16.05;;;7.80;99.90;;;;;;5232777;28;20035;-77
2022/11/09 00:25:37;;;;;;;38.55;15.20;;;7.80;99.90;;;;;;5249253;28;20037;-77
2022/11/09 00:28:28;;;;;;;48.72;16.05;;;7.90;99.90;;;;;;5219520;28;20696;-77
2022/11/09 00:31:25;;;;;;;38.17;16.23;;;7.90;99.90;;;;;;5234791;28;20025;-77
2022/11/09 00:34:19;;;;;;;39.70;14.70;;;7.80;99.90;;;;;;5234422;28;20024;-77
2022/11/09 00:37:15;;;;;;;39.85;16.55;;;7.80;99.90;;;;;;5244300;28;20040;-77
2022/11/09 00:40:08;;;;;;;35.72;14.57;;;7.80;99.90;;;;;;5248340;28;20344;-77
2022/11/09 00:42:59;;;;;;;41.45;14.77;;;7.80;99.90;;;;;;5248605;28;20035;-78
2022/11/09 00:45:51;;;;;;;40.63;15.48;;;7.80;99.90;;;;;;5243421;28;20038;-78
2022/11/09 00:48:46;;;;;;;35.00;13.80;;;7.80;99.90;;;;;;5231994;28;20028;-77
2022/11/09 00:51:37;;;;;;;32.85;12.63;;;7.80;99.90;;;;;;5230403;28;20020;-77
2022/11/09 00:54:32;;;;;;;34.22;13.25;;;7.80;99.90;;;;;;5235594;28;20040;-77
2022/11/09 00:57:24;;;;;;;;;;;7.90;99.90;;;;;;5236361;28;20044;-78
2022/11/09 01:00:20;;;;;;;37.45;14.52;;;7.70;99.90;;;;;;5248611;28;19901;-78
2022/11/09 01:03:17;;;;;;;40.00;14.35;;;7.60;99.90;;;;;;5249536;28;20068;-78
2022/11/09 01:06:23;;;;;;;35.58;13.13;;;7.50;99.90;;;;;;5219479;28;20049;-78
2022/11/09 01:09:14;;;;;;;;;;;7.60;99.90;;;;;;5249162;28;20027;-78
2022/11/09 01:12:05;;;;;;;36.55;13.77;;;7.60;99.90;;;;;;5247229;28;20415;-76
2022/11/09 01:15:00;;;;;;;32.22;13.07;;;7.60;99.90;;;;;;5232448;28;20032;-78
2022/11/09 01:17:51;;;;;;;39.53;14.67;;;7.60;99.90;;;;;;5232720;28;20032;-78
2022/11/09 01:20:49;;;;;;;38.33;14.77;;;7.70;99.90;;;;;;5232566;28;20032;-77
2022/11/09 01:23:43;;;;;;;40.97;15.43;;;7.70;99.90;;;;;;5226706;28;20028;-78
2022/11/09 01:26:35;;;;;;;37.73;13.10;;;7.70;99.90;;;;;;5234198;28;20024;-78
2022/11/09 01:29:32;;;;;;;31.02;12.95;;;7.70;99.90;;;;;;5248401;28;20546;-77
2022/11/09 01:32:31;;;;;;;36.58;15.07;;;7.70;99.90;;;;;;5234072;28;20313;-77
2022/11/09 01:35:23;;;;;;;35.65;13.50;;;7.70;99.90;;;;;;5234956;28;20030;-77
2022/11/09 01:38:17;;;;;;;30.45;12.95;;;7.70;99.90;;;;;;5237850;28;20043;-77
2022/11/09 01:41:21;;;;;;;30.75;13.63;;;7.60;99.90;;;;;;5248028;28;20032;-77
2022/11/09 01:44:19;;;;;;;34.25;12.68;;;7.60;99.90;;;;;;5227951;28;20035;-76
2022/11/09 01:47:24;;;;;;;37.97;14.13;;;7.60;99.90;;;;;;5243897;28;20055;-77
2022/11/09 01:50:26;;;;;;;43.35;15.35;;;7.60;99.90;;;;;;5247324;28;20502;-77
2022/11/09 01:53:29;;;;;;;39.15;15.23;;;7.60;99.90;;;;;;5231592;28;20032;-76
2022/11/09 01:56:21;;;;;;;39.67;14.77;;;7.60;99.90;;;;;;5245838;28;20044;-76
2022/11/09 01:59:16;;;;;;;36.05;12.77;;;7.50;99.90;;;;;;5233714;28;20039;-78
2022/11/09 02:02:09;;;;;;;39.85;14.02;;;7.60;99.90;;;;;;5245170;28;20028;-78
2022/11/09 02:05:10;;;;;;;40.05;14.52;;;7.60;99.90;;;;;;5216371;28;20063;-76
2022/11/09 02:08:05;;;;;;;47.08;14.45;;;7.60;99.90;;;;;;5226045;28;20261;-76
2022/11/09 02:11:05;;;;;;;46.50;14.68;;;7.60;99.90;;;;;;5227823;28;20033;-75
2022/11/09 02:14:01;;;;;;;48.33;15.70;;;7.60;99.90;;;;;;5245526;28;20034;-77
2022/11/09 02:17:00;;;;;;;43.65;14.93;;;7.70;99.90;;;;;;5247099;28;20237;-77
2022/11/09 02:19:58;;;;;;;42.45;14.30;;;7.60;99.90;;;;;;5247941;28;20031;-77
2022/11/09 02:22:53;;;;;;;40.53;14.20;;;7.60;99.90;;;;;;5244820;28;20026;-77
2022/11/09 02:25:56;;;;;;;46.80;15.20;;;7.60;99.90;;;;;;5232294;28;20047;-77
2022/11/09 02:28:51;;;;;;;46.50;15.68;;;7.60;99.90;;;;;;5250803;28;20382;-75
2022/11/09 02:31:50;;;;;;;40.13;16.15;;;7.60;99.90;;;;;;5249706;28;20035;-75
2022/11/09 02:34:44;;;;;;;41.42;15.00;;;7.60;99.90;;;;;;5228431;28;20038;-75
2022/11/09 02:37:54;;;;;;;38.93;14.93;;;7.60;99.90;;;;;;5248920;28;20540;-76
2022/11/09 02:40:51;;;;;;;40.78;15.10;;;7.60;99.90;;;;;;5214828;28;20509;-76
2022/11/09 02:43:46;;;;;;;45.83;15.98;;;7.70;99.90;;;;;;5235088;28;20028;-76
2022/11/09 02:46:37;;;;;;;36.25;13.18;;;7.70;99.90;;;;;;5235066;28;20040;-76
2022/11/09 02:49:31;;;;;;;43.67;14.23;;;7.80;99.90;;;;;;5249849;28;20032;-76
2022/11/09 02:52:27;;;;;;;37.42;14.02;;;7.80;99.90;;;;;;5248704;28;20051;-76
2022/11/09 02:55:18;;;;;;;41.42;15.13;;;7.80;99.90;;;;;;5222289;28;20032;-76
2022/11/09 02:58:15;;;;;;;42.97;15.52;;;7.80;99.90;;;;;;5234885;28;20032;-77
2022/11/09 03:01:07;;;;;;;43.28;16.08;;;7.80;99.90;;;;;;5248391;28;20035;-77
2022/11/09 03:04:00;;;;;;;37.95;14.68;;;7.80;99.90;;;;;;5234643;28;20042;-76
2022/11/09 03:06:52;;;;;;;34.10;13.90;;;7.90;99.90;;;;;;5222401;28;20234;-78
2022/11/09 03:09:49;;;;;;;35.88;14.43;;;7.90;99.90;;;;;;5235563;28;20032;-77
2022/11/09 03:12:40;;;;;;;39.13;12.93;;;8.00;99.90;;;;;;5238156;28;20325;-77
2022/11/09 03:15:43;;;;;;;42.17;14.20;;;8.00;99.90;;;;;;5249496;28;20023;-77
2022/11/09 03:18:34;;;;;;;37.72;13.57;;;8.00;99.90;;;;;;5233480;28;20034;-78
2022/11/09 03:21:28;;;;;;;37.47;14.38;;;8.00;99.90;;;;;;5249571;28;20203;-77
2022/11/09 03:24:19;;;;;;;36.50;14.98;;;8.10;99.90;;;;;;5249527;28;20031;-77
2022/11/09 03:27:14;;;;;;;36.80;15.13;;;8.10;99.90;;;;;;5232697;28;20047;-77
2022/11/09 03:30:09;;;;;;;43.47;16.55;;;8.00;99.90;;;;;;5227395;28;20103;-77
2022/11/09 03:33:03;;;;;;;;;;;8.00;99.90;;;;;;5234842;28;20551;-75
2022/11/09 03:35:57;;;;;;;34.03;13.75;;;8.00;99.90;;;;;;5250323;28;19915;-77
2022/11/09 03:38:49;;;;;;;46.97;15.15;;;8.00;99.90;;;;;;5248937;28;20035;-77
2022/11/09 03:41:42;;;;;;;43.67;16.60;;;8.00;99.90;;;;;;5250867;28;20332;-77
2022/11/09 03:44:36;;;;;;;38.50;16.80;;;8.00;99.90;;;;;;5244416;28;20325;-75
2022/11/09 03:47:28;;;;;;;44.78;17.50;;;8.00;99.90;;;;;;5250340;28;20225;-75
2022/11/09 03:50:24;;;;;;;39.80;17.23;;;8.00;99.90;;;;;;5236484;28;20020;-75
2022/11/09 03:53:16;;;;;;;41.33;16.48;;;8.00;99.90;;;;;;5243735;28;20034;-78
2022/11/09 03:56:12;;;;;;;46.10;16.42;;;8.10;99.90;;;;;;5235063;28;20026;-75
2022/11/09 03:59:06;;;;;;;43.30;18.05;;;8.10;99.90;;;;;;5247374;28;20040;-75
2022/11/09 04:02:03;;;;;;;46.80;18.27;;;8.10;99.90;;;;;;5235460;28;20040;-75
2022/11/09 04:04:59;;;;;;;46.75;17.88;;;8.10;99.90;;;;;;5224357;28;20246;-75
2022/11/09 04:07:53;;;;;;;37.30;15.63;;;8.10;99.90;;;;;;5235424;28;20036;-75
2022/11/09 04:10:45;;;;;;;38.25;15.32;;;8.10;99.90;;;;;;5235852;28;20032;-76
2022/11/09 04:13:36;;;;;;;43.63;17.13;;;8.10;99.90;;;;;;5250222;28;20059;-76
2022/11/09 04:16:27;;;;;;;35.97;15.90;;;8.20;99.90;;;;;;5250135;28;20022;-76
2022/11/09 04:19:24;;;;;;;38.47;13.18;;;8.20;99.90;;;;;;5235736;28;20516;-75
2022/11/09 04:22:15;;;;;;;40.22;16.13;;;8.30;99.90;;;;;;5249066;28;20033;-76
2022/11/09 04:25:07;;;;;;;28.85;15.02;;;8.30;99.90;;;;;;5247225;28;20028;-75
2022/11/09 04:28:05;;;;;;;39.13;16.50;;;8.30;99.90;;;;;;5227034;28;20041;-75
2022/11/09 04:30:59;;;;;;;39.30;16.05;;;8.30;99.90;;;;;;5238073;28;20031;-75
2022/11/09 04:33:51;;;;;;;45.63;17.80;;;8.30;99.90;;;;;;5242108;28;20193;-75
2022/11/09 04:36:43;;;;;;;39.87;16.33;;;8.30;99.90;;;;;;5247504;28;20034;-75
2022/11/09 04:39:35;;;;;;;36.53;16.45;;;8.30;99.90;;;;;;5248338;28;20167;-75
2022/11/09 04:42:33;;;;;;;33.78;15.40;;;8.30;99.90;;;;;;5248341;28;20029;-75
2022/11/09 04:45:24;;;;;;;38.17;15.73;;;8.30;99.90;;;;;;5248667;28;20036;-75
2022/11/09 04:48:20;;;;;;;37.92;18.10;;;8.30;99.90;;;;;;5242003;28;20036;-76
2022/11/09 04:51:15;;;;;;;39.65;17.48;;;8.20;99.90;;;;;;5227357;28;20070;-75
2022/11/09 04:54:09;;;;;;;41.90;18.90;;;8.20;99.90;;;;;;5229561;28;20028;-75
2022/11/09 04:57:00;;;;;;;43.83;16.88;;;8.20;99.90;;;;;;5247130;28;20028;-77
2022/11/09 04:59:52;;;;;;;42.30;18.27;;;8.20;99.90;;;;;;5213721;28;20033;-74
2022/11/09 05:02:43;;;;;;;43.65;15.98;;;8.20;99.90;;;;;;5243391;28;20033;-75
2022/11/09 05:05:39;;;;;;;41.85;16.83;;;8.20;99.90;;;;;;5222598;28;20552;-74
2022/11/09 05:08:30;;;;;;;36.25;17.50;;;8.20;99.90;;;;;;5233671;28;20038;-75
2022/11/09 05:11:22;;;;;;;41.28;17.92;;;8.10;99.90;;;;;;5228175;28;20120;-76
2022/11/09 05:14:15;;;;;;;43.08;17.42;;;8.20;99.90;;;;;;5232424;28;20021;-75
2022/11/09 05:17:10;;;;;;;38.97;16.88;;;8.20;99.90;;;;;;5248565;28;20051;-75
2022/11/09 05:20:02;;;;;;;43.15;16.65;;;8.20;99.90;;;;;;5233873;28;20329;-75
2022/11/09 05:26:06;;;;;;;38.50;16.35;;;8.20;99.90;;;;;;5245237;28;20032;-77
2022/11/09 05:29:00;;;;;;;50.55;18.58;;;8.20;99.90;;;;;;5233321;28;20522;-75
2022/11/09 05:31:52;;;;;;;48.90;17.35;;;8.10;99.90;;;;;;5248841;28;20028;-76
2022/11/09 05:34:45;;;;;;;47.40;17.27;;;8.20;99.90;;;;;;5249265;28;20039;-77
2022/11/09 05:37:40;;;;;;;45.10;15.73;;;8.20;99.90;;;;;;5234362;28;20036;-76
2022/11/09 05:40:32;;;;;;;;;;;8.20;99.90;;;;;;5247002;28;20036;-76
2022/11/09 05:43:27;;;;;;;47.85;15.55;;;8.30;99.90;;;;;;5246441;28;20368;-77
2022/11/09 05:46:25;;;;;;;48.38;17.60;;;8.30;99.90;;;;;;5248639;28;20030;-77
2022/11/09 05:49:19;;;;;;;41.50;16.33;;;8.30;99.90;;;;;;5246843;28;20054;-77
2022/11/09 05:52:13;;;;;;;51.28;16.70;;;8.30;99.90;;;;;;5246266;28;20021;-77
2022/11/09 05:55:11;;;;;;;51.85;18.40;;;8.30;99.90;;;;;;5231632;28;20447;-77
2022/11/09 05:58:03;;;;;;;36.25;14.20;;;8.30;99.90;;;;;;5247138;28;20059;-75
2022/11/09 06:00:54;;;;;;;46.33;16.48;;;8.30;99.90;;;;;;5228519;28;20034;-78
2022/11/09 06:03:51;;;;;;;47.65;18.45;;;8.30;99.90;;;;;;5236685;28;20387;-77
2022/11/09 06:06:51;;;;;;;47.10;18.58;;;8.30;99.90;;;;;;5209522;28;20070;-77
2022/11/09 06:09:49;;;;;;;46.80;16.92;;;8.30;99.90;;;;;;5237488;28;20078;-77
2022/11/09 06:12:41;;;;;;;48.15;18.95;;;8.30;99.90;;;;;;5236571;28;20025;-77
2022/11/09 06:15:40;;;;;;;46.40;17.02;;;8.30;99.90;;;;;;5224374;28;20024;-78
2022/11/09 06:18:36;;;;;;;46.20;16.77;;;8.40;99.90;;;;;;5249458;28;20418;-77
2022/11/09 06:21:27;;;;;;;;;;;8.50;99.90;;;;;;5229386;28;20043;-78
2022/11/09 06:24:21;;;;;;;48.00;18.23;;;8.50;99.90;;;;;;5248270;28;19939;-77
2022/11/09 06:27:14;;;;;;;51.67;17.80;;;8.40;99.90;;;;;;5252426;28;20233;-78
2022/11/09 06:30:07;;;;;;;49.42;16.58;;;8.50;99.90;;;;;;5231714;28;20020;-78
2022/11/09 06:33:02;;;;;;;56.75;18.25;;;8.50;99.90;;;;;;5230469;28;20024;-78
2022/11/09 06:35:55;;;;;;;;;;;8.60;99.90;;;;;;5251674;28;20016;-77
2022/11/09 06:38:55;;;;;;;51.38;16.95;;;8.50;99.90;;;;;;5236245;28;19923;-78
2022/11/09 06:41:46;;;;;;;44.58;17.50;;;8.30;99.90;;;;;;5252400;28;20032;-76
2022/11/09 06:44:40;;;;;;;47.67;15.30;;;8.40;99.90;;;;;;5237331;28;20337;-78
2022/11/09 06:47:32;;;;;;;41.50;16.58;;;8.40;99.90;;;;;;5252518;28;20032;-77
2022/11/09 06:50:24;;;;;;;40.63;17.40;;;8.50;99.90;;;;;;5248996;28;20106;-78
2022/11/09 06:53:20;;;;;;;44.42;16.55;;;8.50;99.90;;;;;;5227268;28;20036;-78
2022/11/09 06:56:11;;;;;;;47.80;17.83;;;8.50;99.90;;;;;;5241919;28;20024;-78
2022/11/09 06:59:02;;;;;;;55.65;18.27;;;8.40;99.90;;;;;;5237563;28;20049;-78
2022/11/09 07:01:56;;;;;;;49.03;17.85;;;8.30;99.90;;;;;;5242089;28;20044;-77
2022/11/09 07:04:56;;;;;;;47.72;16.02;;;8.30;99.90;;;;;;5237878;28;20052;-78
2022/11/09 07:07:55;;;;;;;47.08;16.92;;;8.40;99.90;;;;;;5245261;28;20024;-76
2022/11/09 07:10:50;;;;;;;53.67;18.13;;;8.40;99.90;;;;;;5234454;28;20021;-76
2022/11/09 07:13:44;;;;;;;52.65;17.73;;;8.40;99.90;;;;;;5229952;28;20039;-78
2022/11/09 07:16:40;;;;;;;50.97;18.50;;;8.30;99.90;;;;;;5235378;28;20044;-78
2022/11/09 07:19:32;;;;;;;51.40;16.05;;;8.30;99.90;;;;;;5241684;28;20044;-78
2022/11/09 07:22:27;;;;;;;54.15;17.75;;;8.40;99.90;;;;;;5247376;28;20016;-76
2022/11/09 07:25:21;;;;;;;35.80;16.15;;;8.40;99.90;;;;;;5246004;28;20024;-77
2022/11/09 07:28:18;;;;;;;33.50;15.35;;;8.50;99.90;;;;;;5248793;28;20040;-77
2022/11/09 07:31:12;;;;;;;48.42;17.00;;;8.50;99.90;;;;;;5248829;28;20025;-77
2022/11/09 07:34:08;;;;;;;40.08;16.02;;;8.40;99.90;;;;;;5240992;28;20521;-76
2022/11/09 07:37:00;;;;;;;47.03;15.90;;;8.40;99.90;;;;;;5248094;28;20032;-76
2022/11/09 07:39:51;;;;;;;38.90;15.35;;;8.40;99.90;;;;;;5228281;28;20040;-77
2022/11/09 07:42:45;;;;;;;42.30;16.83;;;8.40;99.90;;;;;;5236086;28;20023;-77
2022/11/09 07:45:37;;;;;;;38.35;16.67;;;8.40;99.90;;;;;;5238323;28;20099;-77
2022/11/09 07:48:28;;;;;;;42.05;15.50;;;8.30;99.90;;;;;;5233475;28;20028;-77
2022/11/09 07:51:19;;;;;;;40.60;14.55;;;8.40;99.90;;;;;;5248805;28;20009;-75
2022/11/09 07:54:13;;;;;;;40.20;13.55;;;8.40;99.90;;;;;;5234054;28;20028;-74
2022/11/09 07:57:11;;;;;;;53.28;14.05;;;8.60;99.90;;;;;;5232566;28;20032;-74
2022/11/09 08:00:03;;;;;;;41.00;15.32;;;9.20;99.90;;;;;;5250018;28;20044;-74
2022/11/09 08:02:55;;;;;;;44.78;17.25;;;9.50;99.90;;;;;;5222187;28;20047;-74
2022/11/09 08:05:47;;;;;;;46.85;16.80;;;9.40;99.90;;;;;;5218516;28;20087;-73
2022/11/09 08:08:39;;;;;;;38.35;14.75;;;9.50;99.90;;;;;;5243003;28;20237;-73
2022/11/09 08:11:30;;;;;;;44.30;16.60;;;9.30;99.90;;;;;;5248362;28;20170;-74
2022/11/09 08:14:24;;;;;;;32.95;15.70;;;9.10;99.90;;;;;;5233485;28;20024;-73
2022/11/09 08:17:18;;;;;;;35.38;14.95;;;9.10;99.90;;;;;;5232951;28;20024;-75
2022/11/09 08:20:19;;;;;;;39.15;16.10;;;9.20;99.90;;;;;;5248849;28;20032;-75
2022/11/09 08:23:15;;;;;;;38.25;15.35;;;9.30;99.90;;;;;;5247840;28;20028;-73
2022/11/09 08:26:07;;;;;;;35.90;15.15;;;9.30;99.90;;;;;;5233692;28;20032;-74
2022/11/09 08:29:04;;;;;;;33.25;13.88;;;9.40;99.90;;;;;;5212532;28;20036;-75
2022/11/09 08:31:55;;;;;;;30.58;13.80;;;9.40;99.90;;;;;;5226833;28;20020;-73
2022/11/09 08:34:47;;;;;;;34.05;14.05;;;9.50;99.90;;;;;;5248826;28;20026;-75
2022/11/09 08:37:39;;;;;;;31.05;13.73;;;9.70;99.90;;;;;;5245868;28;20024;-75
2022/11/09 08:40:31;;;;;;;32.63;13.40;;;9.60;99.90;;;;;;5246456;28;20033;-76
2022/11/09 08:43:24;;;;;;;28.40;12.30;;;9.50;99.90;;;;;;5242927;28;20355;-75
2022/11/09 08:46:16;;;;;;;23.40;11.82;;;9.30;99.90;;;;;;5231421;28;20032;-75
2022/11/09 08:49:08;;;;;;;30.10;12.32;;;9.30;99.90;;;;;;5246742;28;20027;-75
2022/11/09 08:52:02;;;;;;;27.92;11.93;;;9.20;99.90;;;;;;5234030;28;20027;-75
2022/11/09 08:54:53;;;;;;;32.63;13.35;;;9.00;99.90;;;;;;5247459;28;20233;-75
2022/11/09 08:57:45;;;;;;;30.13;13.15;;;9.10;99.90;;;;;;5232327;28;20036;-75
2022/11/09 09:00:36;;;;;;;31.63;13.80;;;8.90;99.90;;;;;;5231509;28;20035;-75
2022/11/09 09:03:31;;;;;;;36.05;14.15;;;8.80;99.90;;;;;;5244649;28;20032;-74
2022/11/09 09:06:33;;;;;;;28.90;14.43;;;8.70;99.90;;;;;;5228043;28;20162;-76
2022/11/09 09:09:30;;;;;;;34.67;14.10;;;8.60;99.90;;;;;;5226638;28;20334;-75
2022/11/09 09:12:22;;;;;;;31.45;13.20;;;8.70;99.90;;;;;;5244351;28;20470;-75
2022/11/09 09:15:19;;;;;;;35.60;14.10;;;8.80;99.90;;;;;;5231937;28;20031;-76
2022/11/09 09:18:11;;;;;;;34.53;15.35;;;8.80;99.90;;;;;;5239768;28;20033;-75
2022/11/09 09:21:10;;;;;;;46.45;17.83;;;9.00;99.90;;;;;;5247244;28;20211;-75
2022/11/09 09:24:04;;;;;;;44.53;20.05;;;9.10;99.90;;;;;;5248177;28;20017;-75
2022/11/09 09:26:58;;;;;;;37.40;16.13;;;9.20;99.90;;;;;;5244520;28;20035;-75
2022/11/09 09:29:50;;;;;;;35.78;16.17;;;9.00;99.90;;;;;;5230228;28;20229;-76
2022/11/09 09:32:44;;;;;;;34.72;14.43;;;9.10;99.90;;;;;;5231590;28;20033;-75
2022/11/09 09:35:44;;;;;;;34.45;15.68;;;9.20;99.90;;;;;;5231973;28;20390;-75
2022/11/09 09:38:35;;;;;;;36.60;16.40;;;9.20;99.90;;;;;;5235858;28;20046;-75
2022/11/09 09:41:51;;;;;;;34.42;15.85;;;9.30;99.90;;;;;;5251956;28;20021;-75
2022/11/09 09:44:46;;;;;;;37.40;15.90;;;9.30;99.90;;;;;;5233621;28;20032;-75
2022/11/09 09:48:05;;;;;;;36.10;15.63;;;9.40;99.90;;;;;;5249978;28;20039;-75
2022/11/09 09:51:03;;;;;;;33.55;14.60;;;9.50;99.90;;;;;;5251171;28;20548;-75
2022/11/09 09:54:25;;;;;;;37.25;14.32;;;9.30;99.90;;;;;;5235817;28;20031;-74
2022/11/09 09:57:22;;;;;;;36.80;14.93;;;9.30;99.90;;;;;;5239098;28;20028;-76
2022/11/09 10:00:28;;;;;;;32.42;15.02;;;9.10;99.90;;;;;;5234810;28;20325;-77
2022/11/09 10:03:20;;;;;;;27.08;12.68;;;9.30;99.90;;;;;;5250261;28;20066;-76
2022/11/09 10:06:36;;;;;;;34.92;14.90;;;9.30;99.90;;;;;;5239247;28;20055;-76
2022/11/09 10:09:52;;;;;;;30.95;13.73;;;9.30;99.90;;;;;;5230241;28;20033;-76
2022/11/09 10:12:43;;;;;;;;;;;9.50;99.90;;;;;;5249389;28;20024;-76
2022/11/09 10:15:44;;;;;;;27.23;12.70;;;9.50;99.90;;;;;;5244173;28;19904;-76
2022/11/09 10:18:49;;;;;;;35.95;13.45;;;9.50;99.90;;;;;;5250560;28;20044;-74
2022/11/09 10:22:18;;;;;;;28.02;12.75;;;9.30;99.90;;;;;;5246982;28;20032;-74
2022/11/09 10:25:31;;;;;;;35.42;13.70;;;9.50;99.90;;;;;;5215614;28;20385;-74
2022/11/09 10:28:26;;;;;;;27.33;13.50;;;9.50;99.90;;;;;;5229319;28;20025;-74
2022/11/09 10:31:20;;;;;;;25.52;12.63;;;9.50;99.90;;;;;;5222873;28;20021;-74
2022/11/09 10:34:24;;;;;;;25.80;12.43;;;9.60;99.90;;;;;;5236406;28;20294;-74
2022/11/09 10:37:38;;;;;;;27.75;12.07;;;9.70;99.90;;;;;;5250477;28;20094;-73
2022/11/09 10:41:02;;;;;;;25.80;11.52;;;9.80;99.90;;;;;;5249124;28;20034;-73
2022/11/09 10:43:56;;;;;;;22.52;10.52;;;9.80;99.90;;;;;;5246152;28;20606;-74
2022/11/09 10:47:10;;;;;;;26.55;11.90;;;9.90;99.90;;;;;;5225479;28;20021;-74
2022/11/09 10:50:19;;;;;;;22.35;11.15;;;10.00;99.90;;;;;;5234665;28;20067;-72
2022/11/09 10:53:20;;;;;;;22.08;11.50;;;10.00;99.90;;;;;;5246612;28;20033;-73
2022/11/09 10:56:18;;;;;;;23.58;11.73;;;9.80;99.90;;;;;;5245766;28;20035;-72
2022/11/09 10:59:38;;;;;;;23.13;10.63;;;9.70;99.90;;;;;;5245045;28;20036;-75
2022/11/09 11:02:38;;;;;;;25.65;10.18;;;9.90;99.90;;;;;;5245884;28;20047;-74
2022/11/09 11:05:31;;;;;;;19.40;10.10;;;10.10;99.90;;;;;;5237759;28;20063;-77
2022/11/09 11:08:32;;;;;;;18.27;10.10;;;10.30;99.90;;;;;;5241859;28;20040;-77
2022/11/09 11:11:29;;;;;;;19.88;9.32;;;10.50;99.90;;;;;;5243224;28;20032;-77
2022/11/09 11:14:25;;;;;;;16.50;8.90;;;10.40;99.90;;;;;;5248396;28;20024;-76
2022/11/09 11:17:28;;;;;;;17.42;8.85;;;10.30;99.90;;;;;;5233239;28;20043;-76
2022/11/09 11:20:28;;;;;;;18.52;8.82;;;10.40;99.90;;;;;;5246561;28;20405;-75
2022/11/09 11:23:24;;;;;;;19.13;9.32;;;10.70;99.90;;;;;;5234796;28;20022;-75
2022/11/09 11:26:18;;;;;;;19.35;8.80;;;10.50;99.90;;;;;;5249763;28;20024;-75
2022/11/09 11:29:33;;;;;;;17.27;8.80;;;10.60;99.90;;;;;;5248231;28;20032;-75
2022/11/09 11:32:30;;;;;;;17.77;9.25;;;10.40;99.90;;;;;;5242685;28;20020;-76
2022/11/09 11:35:33;;;;;;;17.50;8.75;;;10.40;99.90;;;;;;5247755;28;20024;-76
2022/11/09 11:38:33;;;;;;;19.90;9.43;;;10.40;99.90;;;;;;5239996;28;20032;-76
2022/11/09 11:41:46;;;;;;;18.75;8.98;;;10.40;99.90;;;;;;5247591;28;20039;-76
2022/11/09 11:44:44;;;;;;;19.23;9.57;;;10.60;99.90;;;;;;5242087;28;20035;-74
2022/11/09 11:47:41;;;;;;;16.80;9.43;;;10.70;99.90;;;;;;5241546;28;20028;-75
2022/11/09 11:51:17;;;;;;;15.68;8.18;;;10.60;99.90;;;;;;5230801;28;20039;-76
2022/11/09 11:54:41;;;;;;;20.88;10.13;;;10.70;99.90;;;;;;5189474;28;20041;-74
2022/11/09 11:57:47;;;;;;;23.20;8.10;;;10.60;99.90;;;;;;5198533;28;20052;-75
2022/11/09 12:01:09;;;;;;;14.75;8.45;;;10.90;99.90;;;;;;5186073;28;20037;-74
2022/11/09 12:04:31;;;;;;;19.83;9.05;;;11.00;99.90;;;;;;5183760;28;20049;-75
2022/11/09 12:08:00;;;;;;;17.38;8.95;;;11.00;99.90;;;;;;5168052;28;20118;-75
2022/11/09 12:11:31;;;;;;;20.63;8.07;;;11.10;99.90;;;;;;5183309;28;20041;-75
2022/11/09 12:14:46;;;;;;;17.10;8.23;;;10.90;99.90;;;;;;5179412;28;20021;-74
2022/11/09 12:18:13;;;;;;;16.58;8.93;;;10.90;99.90;;;;;;5164537;28;20109;-76
2022/11/09 12:21:20;;;;;;;13.50;7.82;;;10.90;99.90;;;;;;5158122;28;20462;-74
2022/11/09 12:24:37;;;;;;;17.67;9.07;;;10.90;99.90;;;;;;5183805;28;20040;-75
2022/11/09 12:27:34;;;;;;;15.30;7.65;;;10.80;99.90;;;;;;5182588;28;20041;-74
2022/11/09 12:31:15;;;;;;;17.40;8.55;;;10.80;99.90;;;;;;5207087;28;20050;-76
2022/11/09 12:34:38;;;;;;;16.42;7.25;;;10.80;99.90;;;;;;5242926;28;20028;-75
2022/11/09 12:37:43;;;;;;;14.25;8.23;;;11.10;99.90;;;;;;5226281;28;20035;-73
2022/11/09 12:41:01;;;;;;;19.52;9.95;;;11.50;99.90;;;;;;5239892;28;20039;-73
2022/11/09 12:44:04;;;;;;;14.63;8.93;;;11.80;99.90;;;;;;5246881;28;20042;-76
2022/11/09 12:47:06;;;;;;;16.50;8.18;;;12.10;99.90;;;;;;5230079;28;20032;-76
2022/11/09 12:49:57;;;;;;;16.13;7.85;;;12.00;99.90;;;;;;5228011;28;20043;-75
2022/11/09 12:52:51;;;;;;;21.77;9.35;;;11.80;99.90;;;;;;5243795;28;20013;-75
2022/11/09 12:55:51;;;;;;;17.48;8.23;;;11.70;99.90;;;;;;5246149;28;20027;-75
2022/11/09 12:58:43;;;;;;;18.73;8.63;;;11.80;99.90;;;;;;5244470;28;20028;-75
2022/11/09 13:01:34;;;;;;;21.98;9.13;;;11.70;99.90;;;;;;5245587;28;20037;-76
2022/11/09 13:04:26;;;;;;;16.00;8.38;;;11.80;99.90;;;;;;5236309;28;20032;-74
2022/11/09 13:07:51;;;;;;;18.45;9.05;;;12.00;99.90;;;;;;5238393;28;20047;-73
2022/11/09 13:10:45;;;;;;;17.63;9.27;;;12.10;99.90;;;;;;5241385;28;20032;-75
2022/11/09 13:13:42;;;;;;;19.90;9.35;;;12.20;99.90;;;;;;5231820;28;20460;-75
2022/11/09 13:16:35;;;;;;;20.40;9.15;;;12.20;99.90;;;;;;5236604;28;20020;-74
2022/11/09 13:19:51;;;;;;;20.55;10.07;;;12.10;99.90;;;;;;5242889;28;20038;-75
2022/11/09 13:22:45;;;;;;;19.85;10.07;;;11.90;99.90;;;;;;5212383;28;20352;-74
2022/11/09 13:25:47;;;;;;;17.10;10.15;;;11.80;99.90;;;;;;5242963;28;20018;-73
2022/11/09 13:29:04;;;;;;;16.75;9.70;;;11.90;99.90;;;;;;5247472;28;20020;-74
2022/11/09 13:32:07;;;;;;;19.85;9.65;;;11.90;99.90;;;;;;5248897;28;20032;-74
2022/11/09 13:35:03;;;;;;;18.95;8.93;;;12.10;99.90;;;;;;5245251;28;20236;-74
2022/11/09 13:38:01;;;;;;;16.10;9.25;;;12.20;99.90;;;;;;5242442;28;20038;-75
2022/11/09 13:40:57;;;;;;;20.23;9.18;;;11.90;99.90;;;;;;5245594;28;20484;-78
2022/11/09 13:44:21;;;;;;;21.63;10.10;;;12.00;99.90;;;;;;5237131;28;20691;-76
2022/11/09 13:47:25;;;;;;;19.70;9.65;;;12.10;99.90;;;;;;5237568;28;20034;-76
2022/11/09 13:50:19;;;;;;;16.00;9.13;;;12.10;99.90;;;;;;5245640;28;20052;-75
2022/11/09 13:53:47;;;;;;;16.67;9.05;;;12.10;99.90;;;;;;5244455;28;20038;-76
2022/11/09 13:56:40;;;;;;;19.00;9.98;;;12.10;99.90;;;;;;5246211;28;20016;-76
2022/11/09 13:59:50;;;;;;;27.05;10.82;;;12.00;99.90;;;;;;5246454;28;20036;-75
2022/11/09 14:02:54;;;;;;;25.88;10.25;;;12.10;99.90;;;;;;5245480;28;20390;-73
2022/11/09 14:06:20;;;;;;;21.60;10.93;;;12.10;99.90;;;;;;5231590;28;20052;-73
2022/11/09 14:09:16;;;;;;;20.38;9.35;;;12.20;99.90;;;;;;5244723;28;20342;-73
2022/11/09 14:12:30;;;;;;;18.90;10.50;;;12.20;99.90;;;;;;5208746;28;20032;-73
2022/11/09 14:15:37;;;;;;;22.85;10.32;;;12.30;99.90;;;;;;5241415;28;20332;-73
2022/11/09 14:18:39;;;;;;;17.40;9.52;;;12.30;99.90;;;;;;5241878;28;20517;-73
2022/11/09 14:21:51;;;;;;;17.88;9.68;;;12.20;99.90;;;;;;5242206;28;20398;-73
2022/11/09 14:24:43;;;;;;;18.63;10.30;;;12.10;99.90;;;;;;5229711;28;20024;-73
2022/11/09 14:27:35;;;;;;;19.15;9.20;;;12.20;99.90;;;;;;5228194;28;20035;-73
2022/11/09 14:30:36;;;;;;;18.70;9.68;;;12.20;99.90;;;;;;5248107;28;20241;-74
2022/11/09 14:33:32;;;;;;;22.35;10.07;;;12.20;99.90;;;;;;5250637;28;20024;-73
2022/11/09 14:36:30;;;;;;;17.27;9.02;;;12.10;99.90;;;;;;5235216;28;20375;-73
2022/11/09 14:39:36;;;;;;;17.90;9.40;;;11.90;99.90;;;;;;5248523;28;20028;-73
2022/11/09 14:42:27;;;;;;;17.42;9.05;;;11.80;99.90;;;;;;5246608;28;20024;-74
2022/11/09 14:45:25;;;;;;;19.45;9.70;;;11.70;99.90;;;;;;5241240;28;20028;-74
2022/11/09 14:48:20;;;;;;;21.20;10.43;;;11.60;99.90;;;;;;5228660;28;20029;-74
2022/11/09 14:51:48;;;;;;;17.13;9.65;;;11.40;99.90;;;;;;5228832;28;20032;-73
2022/11/09 14:54:59;;;;;;;19.95;10.25;;;11.20;99.90;;;;;;5189462;28;20045;-77
2022/11/09 14:57:56;;;;;;;20.85;9.98;;;11.10;99.90;;;;;;5177941;28;20037;-77
2022/11/09 15:01:16;;;;;;;19.17;10.15;;;10.90;99.90;;;;;;5165593;28;20042;-75
2022/11/09 15:04:18;;;;;;;19.88;9.77;;;10.70;99.90;;;;;;5183925;28;20045;-75
2022/11/09 15:07:19;;;;;;;21.42;10.45;;;10.40;99.90;;;;;;5169894;28;20057;-75
2022/11/09 15:10:23;;;;;;;20.13;10.43;;;10.30;99.90;;;;;;5183247;28;20045;-75
2022/11/09 15:13:14;;;;;;;24.45;11.05;;;10.10;99.90;;;;;;5183988;28;20026;-75
2022/11/09 15:16:08;;;;;;;29.88;13.98;;;9.90;99.90;;;;;;5184312;28;20093;-75
2022/11/09 15:18:59;;;;;;;32.65;14.63;;;9.40;99.90;;;;;;5184548;28;20061;-76
2022/11/09 15:21:56;;;;;;;25.50;13.00;;;9.10;99.90;;;;;;5177699;28;20277;-76